createdAt,value
2023-05-04T00:01:41.226Z,12.21
2023-05-04T00:03:43.873Z,12.23
2023-05-04T00:05:46.576Z,12.21
2023-05-04T00:07:49.131Z,12.17
2023-05-04T00:09:53.081Z,12.14
2023-05-04T00:11:55.621Z,12.17
2023-05-04T00:13:58.154Z,12.13
2023-05-04T00:16:00.774Z,12.12
2023-05-04T00:18:03.415Z,12.24
2023-05-04T00:20:07.428Z,12.12
2023-05-04T00:22:10.059Z,12.02
2023-05-04T00:24:12.629Z,12.01
2023-05-04T00:26:16.621Z,11.99
2023-05-04T00:28:19.222Z,11.97
2023-05-04T00:30:21.765Z,11.96
2023-05-04T00:32:24.422Z,11.94
2023-05-04T00:34:27.043Z,11.93
2023-05-04T00:36:29.608Z,12.02
2023-05-04T00:38:31.238Z,11.87
2023-05-04T00:40:35.128Z,11.81
2023-05-04T00:42:39.017Z,11.82
2023-05-04T00:44:42.294Z,11.80
2023-05-04T00:46:45.143Z,11.81
2023-05-04T00:48:50.105Z,11.90
2023-05-04T00:50:52.670Z,11.85
2023-05-04T00:52:57.256Z,11.80
2023-05-04T00:55:01.912Z,11.78
2023-05-04T00:57:04.546Z,11.74
2023-05-04T00:59:08.485Z,11.77
2023-05-04T01:01:11.537Z,11.75
2023-05-04T01:03:14.425Z,11.79
2023-05-04T01:05:17.290Z,11.78
2023-05-04T01:07:26.845Z,11.92
2023-05-04T01:09:36.988Z,11.82
2023-05-04T01:11:45.127Z,11.75
2023-05-04T01:13:48.184Z,11.76
2023-05-04T01:15:52.720Z,11.75
2023-05-04T01:17:55.362Z,11.73
2023-05-04T01:19:58.022Z,11.74
2023-05-04T01:22:01.947Z,11.74
2023-05-04T01:24:04.836Z,11.74
2023-05-04T01:26:15.260Z,11.76
2023-05-04T01:28:20.429Z,11.74
2023-05-04T01:30:27.055Z,11.72
2023-05-04T01:32:31.446Z,11.73
2023-05-04T01:34:34.942Z,11.72
2023-05-04T01:36:37.970Z,11.67
2023-05-04T01:38:43.146Z,11.66
2023-05-04T01:40:45.739Z,11.61
2023-05-04T01:42:48.377Z,11.67
2023-05-04T01:44:51.661Z,11.59
2023-05-04T01:46:54.324Z,11.61
2023-05-04T01:48:57.004Z,11.54
2023-05-04T01:50:59.577Z,11.55
2023-05-04T01:53:02.163Z,11.53
2023-05-04T01:55:07.213Z,11.46
2023-05-04T01:57:10.011Z,11.45
2023-05-04T01:59:12.602Z,11.46
2023-05-04T02:01:15.209Z,11.48
2023-05-04T02:03:17.893Z,11.43
2023-05-04T02:05:20.498Z,11.41
2023-05-04T02:07:23.114Z,11.40
2023-05-04T02:09:26.165Z,11.39
2023-05-04T02:11:30.125Z,11.37
2023-05-04T02:13:32.697Z,11.38
2023-05-04T02:15:35.273Z,11.31
2023-05-04T02:17:37.875Z,11.22
2023-05-04T02:19:40.471Z,11.21
2023-05-04T02:21:43.073Z,11.19
2023-05-04T02:23:45.698Z,11.21
2023-05-04T02:25:48.276Z,11.14
2023-05-04T02:27:52.312Z,11.12
2023-05-04T02:29:55.005Z,11.13
2023-05-04T02:31:57.608Z,11.08
2023-05-04T02:34:04.817Z,11.14
2023-05-04T02:36:07.765Z,11.12
2023-05-04T02:38:10.435Z,11.10
2023-05-04T02:40:14.253Z,11.12
2023-05-04T02:42:17.953Z,11.09
2023-05-04T02:44:21.895Z,11.03
2023-05-04T02:46:26.696Z,11.02
2023-05-04T02:48:29.375Z,11.05
2023-05-04T02:50:31.976Z,11.06
2023-05-04T02:52:34.531Z,11.06
2023-05-04T02:54:38.481Z,11.02
2023-05-04T02:56:41.040Z,11.02
2023-05-04T02:58:43.611Z,11.00
2023-05-04T03:00:47.640Z,10.99
2023-05-04T03:02:50.365Z,10.99
2023-05-04T03:04:53.029Z,10.95
2023-05-04T03:06:55.582Z,10.97
2023-05-04T03:08:58.168Z,10.94
2023-05-04T03:11:00.736Z,10.89
2023-05-04T03:13:06.188Z,10.94
2023-05-04T03:15:09.839Z,10.88
2023-05-04T03:17:13.718Z,10.86
2023-05-04T03:19:18.879Z,10.87
2023-05-04T03:21:21.473Z,10.85
2023-05-04T03:23:24.081Z,11.04
2023-05-04T03:25:26.960Z,10.86
2023-05-04T03:27:29.535Z,10.82
2023-05-04T03:29:32.103Z,10.78
2023-05-04T03:31:34.790Z,10.76
2023-05-04T03:33:38.727Z,10.74
2023-05-04T03:35:41.614Z,10.72
2023-05-04T03:37:44.151Z,10.75
2023-05-04T03:39:46.734Z,10.70
2023-05-04T03:41:49.511Z,10.70
2023-05-04T03:43:52.063Z,10.69
2023-05-04T03:45:54.674Z,10.70
2023-05-04T03:47:57.406Z,10.68
2023-05-04T03:50:01.417Z,10.67
2023-05-04T03:52:04.008Z,10.65
2023-05-04T03:54:07.275Z,10.66
2023-05-04T03:56:09.961Z,10.61
2023-05-04T03:58:12.538Z,10.58
2023-05-04T04:00:16.341Z,10.54
2023-05-04T04:02:19.020Z,10.51
2023-05-04T04:04:21.705Z,10.46
2023-05-04T04:06:25.657Z,10.50
2023-05-04T04:08:28.289Z,10.45
2023-05-04T04:10:31.939Z,10.41
2023-05-04T04:12:34.596Z,10.38
2023-05-04T04:14:37.182Z,10.34
2023-05-04T04:16:41.722Z,10.37
2023-05-04T04:18:44.333Z,10.37
2023-05-04T04:20:47.209Z,10.37
2023-05-04T04:22:51.153Z,10.41
2023-05-04T04:24:53.728Z,10.37
2023-05-04T04:26:56.320Z,10.34
2023-05-04T04:28:58.915Z,10.35
2023-05-04T04:31:01.936Z,10.37
2023-05-04T04:33:04.961Z,10.37
2023-05-04T04:35:08.557Z,10.43
2023-05-04T04:37:12.057Z,10.40
2023-05-04T04:39:17.049Z,10.40
2023-05-04T04:41:19.779Z,10.39
2023-05-04T04:43:22.340Z,10.39
2023-05-04T04:45:24.999Z,10.39
2023-05-04T04:47:27.842Z,10.40
2023-05-04T04:49:32.518Z,10.40
2023-05-04T04:51:35.087Z,10.39
2023-05-04T04:53:37.653Z,10.37
2023-05-04T04:55:42.618Z,10.39
2023-05-04T04:57:45.170Z,10.41
2023-05-04T04:59:47.721Z,10.40
2023-05-04T05:01:50.300Z,10.46
2023-05-04T05:03:52.873Z,10.46
2023-05-04T05:05:55.725Z,10.52
2023-05-04T05:07:58.287Z,10.54
2023-05-04T05:10:00.890Z,10.53
2023-05-04T05:12:05.392Z,10.52
2023-05-04T05:14:07.940Z,10.55
2023-05-04T05:16:10.596Z,10.58
2023-05-04T05:18:13.666Z,10.58
2023-05-04T05:20:16.242Z,10.61
2023-05-04T05:22:18.784Z,10.62
2023-05-04T05:24:21.362Z,10.66
2023-05-04T05:26:24.794Z,10.69
2023-05-04T05:28:29.862Z,10.72
2023-05-04T05:30:32.648Z,10.73
2023-05-04T05:32:35.281Z,10.76
2023-05-04T05:34:38.942Z,10.77
2023-05-04T05:36:41.569Z,10.82
2023-05-04T05:38:44.110Z,10.86
2023-05-04T05:40:46.931Z,10.91
2023-05-04T05:42:49.511Z,10.97
2023-05-04T05:44:53.427Z,11.00
2023-05-04T05:46:56.735Z,11.04
2023-05-04T05:48:59.306Z,11.07
2023-05-04T05:51:01.904Z,11.12
2023-05-04T05:53:04.566Z,11.14
2023-05-04T05:55:07.537Z,11.16
2023-05-04T05:57:10.100Z,11.21
2023-05-04T05:59:12.673Z,11.23
2023-05-04T06:01:16.572Z,11.25
2023-05-04T06:03:19.316Z,11.26
2023-05-04T06:05:21.986Z,11.28
2023-05-04T06:07:24.600Z,11.31
2023-05-04T06:09:27.153Z,11.34
2023-05-04T06:11:29.780Z,11.36
2023-05-04T06:13:32.325Z,11.38
2023-05-04T06:15:36.588Z,11.40
2023-05-04T06:17:40.573Z,11.43
2023-05-04T06:19:43.129Z,11.46
2023-05-04T06:21:45.703Z,11.48
2023-05-04T06:23:48.257Z,11.50
2023-05-04T06:25:50.821Z,11.53
2023-05-04T06:27:53.398Z,11.63
2023-05-04T06:29:55.986Z,11.60
2023-05-04T06:31:58.970Z,11.61
2023-05-04T06:34:02.954Z,11.61
2023-05-04T06:36:06.384Z,11.64
2023-05-04T06:38:08.960Z,11.67
2023-05-04T06:40:12.428Z,11.70
2023-05-04T06:42:15.370Z,11.72
2023-05-04T06:44:18.588Z,11.76
2023-05-04T06:46:21.397Z,11.82
2023-05-04T06:48:24.086Z,11.85
2023-05-04T06:50:28.222Z,11.91
2023-05-04T06:52:30.784Z,11.94
2023-05-04T06:54:33.350Z,11.98
2023-05-04T06:56:36.006Z,12.00
2023-05-04T06:58:38.605Z,12.04
2023-05-04T07:00:42.464Z,12.07
2023-05-04T07:02:46.966Z,12.13
2023-05-04T07:04:53.551Z,12.18
2023-05-04T07:06:57.464Z,12.22
2023-05-04T07:09:00.064Z,12.27
2023-05-04T07:11:02.672Z,12.32
2023-05-04T07:13:05.893Z,12.41
2023-05-04T07:15:09.871Z,12.44
2023-05-04T07:17:14.069Z,12.47
2023-05-04T07:19:17.000Z,12.50
2023-05-04T07:21:27.422Z,12.55
2023-05-04T07:23:32.902Z,12.60
2023-05-04T07:25:35.656Z,12.67
2023-05-04T07:27:38.231Z,12.71
2023-05-04T07:29:41.651Z,12.75
2023-05-04T07:31:44.256Z,12.79
2023-05-04T07:33:46.798Z,12.84
2023-05-04T07:35:49.354Z,12.86
2023-05-04T07:37:51.959Z,12.91
2023-05-04T07:39:55.905Z,12.95
2023-05-04T07:41:58.482Z,12.98
2023-05-04T07:44:01.080Z,13.03
2023-05-04T07:46:04.060Z,13.07
2023-05-04T07:48:06.971Z,13.11
2023-05-04T07:50:10.130Z,13.16
2023-05-04T07:52:12.758Z,13.20
2023-05-04T07:54:16.199Z,13.23
2023-05-04T07:56:20.234Z,13.28
2023-05-04T07:58:22.795Z,13.33
2023-05-04T08:00:25.482Z,13.37
2023-05-04T08:02:28.127Z,13.39
2023-05-04T08:04:30.848Z,13.44
2023-05-04T08:06:35.357Z,13.46
2023-05-04T08:08:37.924Z,13.52
2023-05-04T08:10:40.837Z,13.62
2023-05-04T08:12:44.994Z,13.68
2023-05-04T08:14:48.068Z,13.76
2023-05-04T08:16:50.637Z,13.88
2023-05-04T08:18:56.153Z,13.85
2023-05-04T08:20:58.749Z,13.86
2023-05-04T08:23:02.640Z,13.88
2023-05-04T08:25:06.032Z,13.90
2023-05-04T08:27:09.921Z,13.94
2023-05-04T08:29:14.149Z,13.97
2023-05-04T08:31:18.392Z,14.04
2023-05-04T08:33:20.983Z,14.05
2023-05-04T08:35:25.876Z,14.07
2023-05-04T08:37:28.426Z,14.12
2023-05-04T08:39:31.253Z,14.15
2023-05-04T08:41:34.451Z,14.18
2023-05-04T08:43:37.107Z,14.28
2023-05-04T08:45:41.664Z,14.33
2023-05-04T08:47:45.068Z,14.39
2023-05-04T08:49:47.728Z,14.41
2023-05-04T08:51:51.230Z,14.42
2023-05-04T08:53:55.648Z,14.44
2023-05-04T08:56:04.052Z,14.47
2023-05-04T08:58:11.002Z,14.59
2023-05-04T09:00:17.584Z,14.59
2023-05-04T09:02:23.095Z,14.60
2023-05-04T09:04:29.240Z,14.68
2023-05-04T09:06:35.166Z,14.70
2023-05-04T09:08:37.818Z,14.73
2023-05-04T09:10:43.340Z,14.78
2023-05-04T09:12:46.515Z,14.86
2023-05-04T09:14:49.206Z,14.86
2023-05-04T09:16:51.952Z,15.02
2023-05-04T09:18:55.958Z,15.16
2023-05-04T09:20:58.516Z,15.31
2023-05-04T09:23:03.176Z,15.31
2023-05-04T09:25:08.281Z,15.41
2023-05-04T09:27:11.617Z,15.44
2023-05-04T09:29:15.188Z,15.73
2023-05-04T09:31:17.832Z,15.82
2023-05-04T09:33:27.228Z,15.97
2023-05-04T09:35:33.756Z,16.07
2023-05-04T09:37:44.958Z,16.01
2023-05-04T09:39:55.159Z,16.13
2023-05-04T09:41:57.916Z,16.21
2023-05-04T09:44:00.469Z,16.30
2023-05-04T09:46:03.187Z,16.43
2023-05-04T09:48:16.216Z,16.32
2023-05-04T09:50:22.162Z,16.31
2023-05-04T09:52:30.856Z,16.57
2023-05-04T09:54:36.094Z,16.55
2023-05-04T09:56:42.846Z,16.54
2023-05-04T09:58:47.174Z,16.51
2023-05-04T10:00:50.159Z,16.61
2023-05-04T10:02:53.458Z,16.69
2023-05-04T10:04:58.978Z,16.75
2023-05-04T10:07:04.355Z,16.71
2023-05-04T10:09:08.994Z,16.90
2023-05-04T10:11:14.989Z,17.02
2023-05-04T10:13:18.078Z,17.04
2023-05-04T10:15:22.759Z,17.02
2023-05-04T10:17:36.061Z,16.90
2023-05-04T10:19:55.544Z,17.03
2023-05-04T10:22:13.619Z,17.11
2023-05-04T10:24:29.226Z,17.07
2023-05-04T10:26:55.178Z,17.12
2023-05-04T10:29:12.822Z,17.14
2023-05-04T10:31:15.809Z,17.01
2023-05-04T10:33:18.578Z,17.14
2023-05-04T10:35:21.784Z,17.16
2023-05-04T10:37:24.432Z,17.12
2023-05-04T10:39:31.173Z,17.08
2023-05-04T10:41:33.713Z,17.04
2023-05-04T10:43:36.300Z,17.08
2023-05-04T10:45:39.818Z,17.38
2023-05-04T10:47:43.022Z,17.46
2023-05-04T10:49:45.620Z,17.51
2023-05-04T10:51:49.632Z,17.38
2023-05-04T10:53:53.138Z,17.33
2023-05-04T10:55:57.018Z,17.36
2023-05-04T10:57:59.603Z,17.25
2023-05-04T11:00:02.275Z,17.20
2023-05-04T11:02:06.646Z,17.23
2023-05-04T11:04:19.941Z,17.28
2023-05-04T11:06:24.565Z,17.49
2023-05-04T11:08:28.137Z,17.38
2023-05-04T11:10:31.031Z,17.52
2023-05-04T11:12:36.873Z,17.59
2023-05-04T11:14:43.152Z,17.75
2023-05-04T11:16:46.534Z,17.77
2023-05-04T11:18:50.648Z,17.82
2023-05-04T11:20:53.253Z,17.90
2023-05-04T11:22:55.943Z,17.75
2023-05-04T11:24:58.560Z,18.06
2023-05-04T11:27:01.209Z,17.97
2023-05-04T11:29:14.550Z,17.88
2023-05-04T11:31:18.457Z,17.95
2023-05-04T11:33:21.024Z,17.90
2023-05-04T11:35:25.862Z,17.94
2023-05-04T11:37:29.823Z,17.82
2023-05-04T11:39:33.433Z,17.77
2023-05-04T11:41:36.458Z,17.87
2023-05-04T11:43:40.687Z,17.92
2023-05-04T11:45:47.150Z,18.04
2023-05-04T11:47:51.187Z,18.35
2023-05-04T11:49:53.880Z,18.24
2023-05-04T11:52:06.983Z,18.31
2023-05-04T11:54:20.623Z,18.44
2023-05-04T11:56:23.345Z,18.56
2023-05-04T11:58:26.805Z,18.52
2023-05-04T12:00:37.371Z,18.54
2023-05-04T12:02:41.644Z,18.64
2023-05-04T12:04:44.421Z,18.67
2023-05-04T12:06:47.037Z,18.81
2023-05-04T12:08:49.646Z,18.68
2023-05-04T12:10:52.217Z,18.86
2023-05-04T12:12:54.842Z,19.10
2023-05-04T12:14:57.649Z,18.95
2023-05-04T12:17:02.887Z,19.08
2023-05-04T12:19:08.204Z,19.28
2023-05-04T12:21:12.028Z,19.22
2023-05-04T12:23:14.590Z,19.21
2023-05-04T12:25:19.424Z,19.28
2023-05-04T12:27:22.082Z,19.34
2023-05-04T12:29:24.637Z,19.53
2023-05-04T12:31:28.530Z,19.50
2023-05-04T12:33:31.775Z,19.54
2023-05-04T12:35:35.668Z,19.72
2023-05-04T12:37:38.875Z,19.67
2023-05-04T12:39:41.937Z,19.62
2023-05-04T12:41:44.486Z,19.74
2023-05-04T12:43:47.032Z,19.73
2023-05-04T12:45:49.739Z,19.97
2023-05-04T12:47:52.406Z,19.92
2023-05-04T12:49:55.872Z,19.98
2023-05-04T12:51:59.842Z,20.12
2023-05-04T12:54:02.378Z,20.27
2023-05-04T12:56:05.263Z,20.63
2023-05-04T12:58:08.895Z,20.69
2023-05-04T13:00:12.864Z,20.80
2023-05-04T13:02:15.609Z,20.92
2023-05-04T13:04:18.380Z,21.09
2023-05-04T13:06:20.960Z,21.33
2023-05-04T13:08:24.938Z,21.56
2023-05-04T13:10:27.990Z,21.78
2023-05-04T13:12:30.598Z,22.01
2023-05-04T13:14:39.552Z,22.09
2023-05-04T13:16:42.654Z,22.46
2023-05-04T13:18:45.270Z,22.56
2023-05-04T13:20:47.848Z,22.78
2023-05-04T13:22:50.699Z,22.99
2023-05-04T13:24:54.708Z,23.22
2023-05-04T13:26:58.196Z,23.44
2023-05-04T13:29:03.323Z,23.59
2023-05-04T13:31:06.364Z,23.97
2023-05-04T13:33:20.861Z,24.28
2023-05-04T13:35:30.439Z,24.66
2023-05-04T13:37:33.889Z,24.94
2023-05-04T13:39:41.908Z,25.38
2023-05-04T13:41:46.085Z,25.82
2023-05-04T13:43:49.534Z,26.08
2023-05-04T13:45:52.381Z,26.59
2023-05-04T13:47:55.172Z,26.88
2023-05-04T13:49:57.975Z,26.96
2023-05-04T13:52:00.746Z,27.02
2023-05-04T13:54:03.642Z,27.10
2023-05-04T13:56:06.693Z,27.25
2023-05-04T13:58:10.620Z,27.56
2023-05-04T14:00:15.971Z,27.75
2023-05-04T14:02:20.181Z,28.04
2023-05-04T14:04:23.460Z,27.92
2023-05-04T14:06:29.502Z,28.18
2023-05-04T14:08:32.142Z,28.03
2023-05-04T14:10:36.648Z,28.18
2023-05-04T14:12:40.129Z,28.09
2023-05-04T14:14:44.058Z,28.27
2023-05-04T14:16:46.856Z,28.44
2023-05-04T14:18:50.112Z,28.44
2023-05-04T14:20:52.651Z,28.49
2023-05-04T14:22:55.212Z,28.88
2023-05-04T14:24:57.912Z,28.77
2023-05-04T14:27:02.548Z,28.91
2023-05-04T14:29:05.176Z,28.64
2023-05-04T14:31:09.488Z,28.66
2023-05-04T14:33:12.229Z,28.46
2023-05-04T14:35:16.294Z,28.40
2023-05-04T14:37:18.850Z,28.31
2023-05-04T14:39:21.435Z,28.21
2023-05-04T14:41:23.992Z,28.12
2023-05-04T14:43:26.615Z,27.97
2023-05-04T14:45:29.380Z,28.12
2023-05-04T14:47:33.686Z,28.13
2023-05-04T14:49:42.300Z,28.06
2023-05-04T14:51:44.899Z,27.92
2023-05-04T14:53:50.428Z,27.85
2023-05-04T14:55:53.084Z,27.77
2023-05-04T14:57:55.651Z,27.71
2023-05-04T14:59:58.323Z,27.80
2023-05-04T15:02:01.019Z,27.72
2023-05-04T15:04:05.105Z,27.69
2023-05-04T15:06:08.722Z,27.69
2023-05-04T15:08:11.294Z,27.62
2023-05-04T15:10:14.846Z,27.60
2023-05-04T15:12:17.601Z,27.61
2023-05-04T15:14:20.284Z,27.58
2023-05-04T15:16:22.956Z,27.51
2023-05-04T15:18:26.408Z,27.50
2023-05-04T15:20:30.422Z,27.40
2023-05-04T15:22:33.390Z,27.30
2023-05-04T15:24:36.019Z,27.34
2023-05-04T15:26:38.830Z,27.11
2023-05-04T15:28:41.443Z,27.01
2023-05-04T15:30:43.980Z,26.92
2023-05-04T15:32:46.555Z,26.89
2023-05-04T15:35:01.117Z,26.89
2023-05-04T15:37:08.903Z,26.85
2023-05-04T15:39:11.521Z,26.78
2023-05-04T15:41:14.257Z,26.71
2023-05-04T15:43:16.909Z,26.60
2023-05-04T15:45:19.545Z,26.54
2023-05-04T15:47:22.347Z,26.62
2023-05-04T15:49:27.188Z,26.62
2023-05-04T15:51:31.857Z,26.61
2023-05-04T15:53:35.877Z,26.59
2023-05-04T15:55:38.477Z,26.54
2023-05-04T15:57:41.041Z,26.44
2023-05-04T15:59:43.616Z,26.42
2023-05-04T16:01:46.304Z,26.48
2023-05-04T16:03:49.069Z,26.33
2023-05-04T16:05:51.708Z,26.23
2023-05-04T16:07:54.409Z,26.12
2023-05-04T16:09:59.259Z,26.01
2023-05-04T16:12:02.291Z,26.01
2023-05-04T16:14:05.043Z,26.02
2023-05-04T16:16:08.825Z,26.00
2023-05-04T16:18:11.478Z,25.96
2023-05-04T16:20:14.120Z,25.73
2023-05-04T16:22:16.674Z,25.80
2023-05-04T16:24:19.324Z,25.63
2023-05-04T16:26:23.219Z,25.54
2023-05-04T16:28:25.782Z,25.42
2023-05-04T16:30:32.625Z,25.35
2023-05-04T16:32:35.197Z,25.26
2023-05-04T16:34:37.795Z,25.39
2023-05-04T16:36:40.358Z,25.18
2023-05-04T16:38:43.064Z,25.11
2023-05-04T16:40:46.088Z,25.05
2023-05-04T16:42:49.990Z,24.96
2023-05-04T16:44:54.962Z,24.92
2023-05-04T16:46:57.698Z,24.92
2023-05-04T16:49:00.306Z,24.91
2023-05-04T16:51:02.834Z,24.93
2023-05-04T16:53:05.406Z,24.88
2023-05-04T16:55:11.813Z,24.81
2023-05-04T16:57:15.286Z,24.80
2023-05-04T16:59:19.185Z,24.82
2023-05-04T17:01:21.808Z,24.80
2023-05-04T17:03:24.467Z,24.72
2023-05-04T17:05:27.073Z,24.72
2023-05-04T17:07:29.665Z,24.71
2023-05-04T17:09:32.252Z,24.51
2023-05-04T17:11:34.951Z,24.42
2023-05-04T17:13:37.764Z,24.27
2023-05-04T17:15:41.720Z,24.28
2023-05-04T17:17:44.321Z,24.15
2023-05-04T17:19:46.924Z,24.05
2023-05-04T17:21:49.511Z,23.96
2023-05-04T17:23:52.046Z,24.00
2023-05-04T17:25:56.388Z,23.91
2023-05-04T17:27:59.015Z,23.79
2023-05-04T17:30:01.586Z,23.69
2023-05-04T17:32:06.011Z,23.69
2023-05-04T17:34:08.633Z,23.61
2023-05-04T17:36:12.116Z,23.50
2023-05-04T17:38:14.904Z,23.50
2023-05-04T17:40:17.521Z,23.37
2023-05-04T17:42:20.086Z,23.27
2023-05-04T17:44:24.714Z,23.28
2023-05-04T17:46:27.420Z,23.20
2023-05-04T17:48:32.026Z,23.19
2023-05-04T17:50:34.638Z,23.28
2023-05-04T17:52:37.573Z,23.13
2023-05-04T17:54:40.299Z,23.00
2023-05-04T17:56:42.946Z,22.97
2023-05-04T17:58:45.542Z,23.01
2023-05-04T18:00:49.549Z,22.86
2023-05-04T18:02:53.960Z,22.80
2023-05-04T18:04:57.870Z,22.71
2023-05-04T18:07:00.463Z,22.66
2023-05-04T18:09:03.624Z,22.62
2023-05-04T18:11:06.307Z,22.50
2023-05-04T18:13:08.939Z,22.47
2023-05-04T18:15:11.914Z,22.41
2023-05-04T18:17:14.600Z,22.30
2023-05-04T18:19:23.696Z,22.26
2023-05-04T18:21:27.680Z,22.17
2023-05-04T18:23:30.271Z,22.15
2023-05-04T18:25:33.390Z,22.06
2023-05-04T18:27:36.333Z,22.05
2023-05-04T18:29:39.017Z,21.93
2023-05-04T18:31:41.616Z,21.87
2023-05-04T18:33:44.209Z,21.84
2023-05-04T18:35:46.764Z,21.77
2023-05-04T18:37:50.872Z,21.70
2023-05-04T18:41:58.319Z,21.59
2023-05-04T18:44:01.223Z,21.55
2023-05-04T18:46:08.208Z,21.48
2023-05-04T18:48:10.962Z,21.42
2023-05-04T18:50:13.798Z,21.38
2023-05-04T18:52:16.346Z,21.35
2023-05-04T18:54:20.241Z,21.30
2023-05-04T18:56:22.809Z,21.20
2023-05-04T18:58:25.622Z,21.12
2023-05-04T19:00:28.691Z,21.07
2023-05-04T19:02:31.549Z,21.10
2023-05-04T19:04:34.333Z,21.04
2023-05-04T19:06:40.234Z,21.00
2023-05-04T19:08:42.836Z,20.99
2023-05-04T19:10:46.916Z,20.99
2023-05-04T19:12:51.720Z,20.95
2023-05-04T19:14:55.190Z,21.09
2023-05-04T19:16:57.948Z,20.98
2023-05-04T19:19:00.584Z,20.90
2023-05-04T19:21:05.358Z,20.90
2023-05-04T19:23:10.042Z,21.07
2023-05-04T19:25:20.325Z,20.90
2023-05-04T19:27:31.196Z,20.95
2023-05-04T19:29:33.792Z,20.88
2023-05-04T19:31:36.545Z,20.81
2023-05-04T19:33:47.944Z,20.80
2023-05-04T19:35:51.675Z,20.77
2023-05-04T19:37:54.322Z,20.76
2023-05-04T19:39:57.776Z,20.66
2023-05-04T19:42:00.922Z,20.72
2023-05-04T19:44:07.867Z,20.71
2023-05-04T19:46:10.493Z,20.71
2023-05-04T19:48:16.277Z,20.78
2023-05-04T19:50:19.218Z,20.61
2023-05-04T19:52:21.830Z,20.53
2023-05-04T19:54:24.478Z,20.55
2023-05-04T19:56:27.016Z,20.50
2023-05-04T19:58:30.863Z,20.65
2023-05-04T20:00:34.896Z,20.56
2023-05-04T20:02:38.072Z,20.54
2023-05-04T20:04:40.832Z,20.41
2023-05-04T20:06:43.372Z,20.35
2023-05-04T20:08:46.153Z,20.30
2023-05-04T20:10:48.760Z,20.25
2023-05-04T20:12:51.318Z,20.22
2023-05-04T20:14:53.890Z,20.19
2023-05-04T20:16:57.925Z,20.18
2023-05-04T20:19:03.426Z,20.08
2023-05-04T20:21:06.402Z,20.12
2023-05-04T20:23:09.253Z,20.07
2023-05-04T20:25:11.915Z,20.00
2023-05-04T20:27:14.471Z,19.98
2023-05-04T20:29:17.044Z,20.00
2023-05-04T20:31:19.622Z,19.87
2023-05-04T20:33:23.558Z,19.99
2023-05-04T20:35:26.223Z,19.88
2023-05-04T20:37:28.790Z,19.80
2023-05-04T20:39:31.473Z,19.82
2023-05-04T20:41:34.085Z,19.78
2023-05-04T20:43:36.701Z,19.80
2023-05-04T20:45:39.271Z,19.73
2023-05-04T20:47:41.841Z,19.72
2023-05-04T20:49:45.820Z,19.61
2023-05-04T20:51:48.379Z,19.58
2023-05-04T20:53:50.990Z,19.60
2023-05-04T20:55:53.563Z,19.61
2023-05-04T20:57:56.189Z,19.54
2023-05-04T20:59:58.945Z,19.60
2023-05-04T21:02:01.498Z,19.57
2023-05-04T21:04:04.167Z,19.53
2023-05-04T21:06:08.239Z,19.55
2023-05-04T21:08:10.800Z,19.46
2023-05-04T21:10:13.375Z,19.53
2023-05-04T21:12:16.327Z,19.51
2023-05-04T21:14:18.893Z,19.52
2023-05-04T21:16:21.606Z,19.39
2023-05-04T21:18:24.169Z,19.48
2023-05-04T21:20:26.889Z,19.43
2023-05-04T21:22:30.892Z,19.34
2023-05-04T21:24:33.464Z,19.28
2023-05-04T21:26:36.146Z,19.30
2023-05-04T21:28:38.797Z,19.28
2023-05-04T21:30:42.301Z,19.25
2023-05-04T21:32:44.915Z,19.15
2023-05-04T21:34:52.404Z,19.12
2023-05-04T21:36:54.931Z,19.11
2023-05-04T21:38:59.098Z,19.16
2023-05-04T21:41:10.939Z,19.12
2023-05-04T21:43:13.372Z,19.05
2023-05-04T21:45:15.935Z,19.06
2023-05-04T21:47:18.495Z,18.99
2023-05-04T21:49:21.067Z,18.90
2023-05-04T21:51:23.611Z,19.01
2023-05-04T21:53:26.215Z,19.02
2023-05-04T21:55:31.277Z,18.94
2023-05-04T21:57:33.885Z,18.92
2023-05-04T21:59:36.464Z,18.76
2023-05-04T22:01:39.022Z,18.69
2023-05-04T22:03:41.695Z,18.60
2023-05-04T22:05:52.687Z,18.58
2023-05-04T22:07:55.252Z,18.62
2023-05-04T22:09:57.824Z,18.54
2023-05-04T22:12:02.192Z,18.50
2023-05-04T22:14:04.739Z,18.51
2023-05-04T22:16:09.423Z,18.65
2023-05-04T22:18:12.249Z,18.56
2023-05-04T22:20:15.076Z,18.51
2023-05-04T22:22:17.686Z,18.55
2023-05-04T22:24:20.725Z,18.56
2023-05-04T22:26:23.275Z,18.57
2023-05-04T22:28:27.311Z,18.56
2023-05-04T22:30:30.183Z,18.56
2023-05-04T22:32:32.800Z,18.54
2023-05-04T22:34:35.544Z,18.53
2023-05-04T22:36:38.095Z,18.47
2023-05-04T22:38:40.687Z,18.44
2023-05-04T22:40:43.793Z,18.48
2023-05-04T22:42:46.429Z,18.49
2023-05-04T22:44:50.345Z,18.43
2023-05-04T22:46:52.918Z,18.38
2023-05-04T22:48:55.493Z,18.39
2023-05-04T22:50:58.066Z,18.43
2023-05-04T22:53:00.748Z,18.38
2023-05-04T22:55:03.747Z,18.45
2023-05-04T22:57:06.678Z,18.43
2023-05-04T22:59:09.236Z,18.53
2023-05-04T23:01:13.171Z,18.47
2023-05-04T23:03:15.882Z,18.43
2023-05-04T23:05:18.795Z,18.41
2023-05-04T23:07:21.370Z,18.35
2023-05-04T23:09:23.985Z,18.43
2023-05-04T23:11:26.529Z,18.30
2023-05-04T23:13:29.087Z,18.26
2023-05-04T23:15:32.681Z,18.24
2023-05-04T23:17:38.470Z,18.24
2023-05-04T23:19:41.134Z,18.26
2023-05-04T23:21:43.682Z,18.23
2023-05-04T23:23:46.245Z,18.20
2023-05-04T23:25:48.831Z,18.17
2023-05-04T23:27:51.418Z,18.17
2023-05-04T23:29:54.283Z,18.17
2023-05-04T23:31:56.944Z,18.16
2023-05-04T23:34:01.009Z,18.14
2023-05-04T23:36:03.644Z,18.17
2023-05-04T23:38:06.246Z,18.14
2023-05-04T23:40:10.338Z,18.13
2023-05-04T23:42:13.063Z,18.17
2023-05-04T23:44:16.429Z,18.10
2023-05-04T23:46:19.054Z,18.08
2023-05-04T23:48:21.609Z,18.02
2023-05-04T23:50:25.619Z,18.10
2023-05-04T23:52:28.181Z,18.13
2023-05-04T23:54:31.046Z,18.01
2023-05-04T23:56:33.608Z,18.02
2023-05-04T23:58:37.147Z,18.02
